Time;durP1;ratioP1;P1;durP2;ratioP2;P2;SDS_P1;SDS_P2;PMS_P1;PMS_P2;Temp;Humidity;BMP_temperature;BMP_pressure;BME280_temperature;BME280_humidity;BME280_pressure;Samples;Min_cycle;Max_cycle;Signal;HPM_P1;HPM_P2
2024/02/12 00:01:23;;;;;;;1.90;1.42;;;;;;;-0.74;100.00;99258.13;5080820;28;20157;-74
2024/02/12 00:03:56;;;;;;;1.65;1.42;;;;;;;-0.78;100.00;99264.69;5097723;28;20036;-73
2024/02/12 00:06:22;;;;;;;1.77;1.48;;;;;;;-0.83;100.00;99261.63;5080826;28;20122;-73
2024/02/12 00:08:48;;;;;;;3.08;1.67;;;;;;;-0.99;100.00;99268.28;5080383;28;20149;-73
2024/02/12 00:11:14;;;;;;;2.85;2.05;;;;;;;-0.98;100.00;99271.75;5097172;28;20024;-76
2024/02/12 00:13:40;;;;;;;1.52;1.00;;;;;;;-0.99;100.00;99270.91;5080404;28;20036;-73
2024/02/12 00:16:06;;;;;;;2.20;0.98;;;;;;;-1.00;100.00;99258.72;5114453;28;20455;-73
2024/02/12 00:18:32;;;;;;;1.92;1.65;;;;;;;-1.03;100.00;99269.53;5080410;28;20039;-73
2024/02/12 00:20:58;;;;;;;1.17;1.10;;;;;;;-1.02;100.00;99268.56;5096866;28;20034;-73
2024/02/12 00:23:24;;;;;;;1.00;0.93;;;;;;;-0.91;100.00;99270.22;5096818;28;20387;-73
2024/02/12 00:25:49;;;;;;;6.85;1.70;;;;;;;-0.75;100.00;99277.59;5096754;28;20085;-73
2024/02/12 00:28:15;;;;;;;5.88;1.13;;;;;;;-0.62;100.00;99272.03;5080055;28;20033;-73
2024/02/12 00:30:41;;;;;;;1.55;1.40;;;;;;;-0.54;100.00;99275.63;5080300;28;20027;-73
2024/02/12 00:33:06;;;;;;;1.30;1.17;;;;;;;-0.46;100.00;99280.19;5080158;28;20032;-74
2024/02/12 00:35:33;;;;;;;1.10;1.00;;;;;;;-0.40;100.00;99281.44;5080266;28;20057;-73
2024/02/12 00:38:00;;;;;;;0.85;0.85;;;;;;;-0.47;100.00;99283.81;5096689;28;20459;-73
2024/02/12 00:40:25;;;;;;;1.02;1.00;;;;;;;-0.56;100.00;99277.56;5080288;28;20039;-73
2024/02/12 00:42:54;;;;;;;1.67;1.05;;;;;;;-0.59;100.00;99290.22;5096455;28;20115;-73
2024/02/12 00:45:21;;;;;;;1.30;1.20;;;;;;;-0.60;100.00;99281.47;5097314;28;20066;-73
2024/02/12 00:47:46;;;;;;;2.20;1.83;;;;;;;-0.51;100.00;99292.97;5113330;28;20066;-73
2024/02/12 00:50:15;;;;;;;0.93;0.93;;;;;;;-0.49;100.00;99293.69;5096278;28;20035;-73
2024/02/12 00:52:41;;;;;;;1.17;1.02;;;;;;;-0.59;100.00;99290.22;5080327;28;20028;-73
2024/02/12 00:55:07;;;;;;;6.68;2.05;;;;;;;-0.63;100.00;99291.50;5079855;28;20031;-73
2024/02/12 00:57:45;;;;;;;2.00;1.58;;;;;;;-0.66;100.00;99292.59;5098030;28;20024;-73
2024/02/12 01:00:14;;;;;;;2.92;1.70;;;;;;;-0.64;100.00;99295.91;5079924;28;20031;-73
2024/02/12 01:02:54;;;;;;;0.90;0.85;;;;;;;-0.63;100.00;99294.97;5113247;28;20034;-73
2024/02/12 01:05:22;;;;;;;2.10;1.50;;;;;;;-0.66;100.00;99303.16;5096474;28;20084;-73
2024/02/12 01:07:50;;;;;;;0.77;0.77;;;;;;;-0.65;100.00;99299.53;5096408;28;20040;-73
2024/02/12 01:10:16;;;;;;;0.52;0.52;;;;;;;-0.48;100.00;99304.13;5079246;28;20453;-73
2024/02/12 01:12:43;;;;;;;4.00;1.55;;;;;;;-0.31;100.00;99307.00;5079729;28;20034;-73
2024/02/12 01:15:10;;;;;;;1.33;0.80;;;;;;;-0.20;100.00;99298.91;5096559;28;20184;-73
2024/02/12 01:17:48;;;;;;;1.88;1.35;;;;;;;0.03;100.00;99306.47;5097543;28;20042;-73
2024/02/12 01:20:14;;;;;;;0.70;0.70;;;;;;;0.13;100.00;99316.06;5096025;28;20027;-73
2024/02/12 01:22:39;;;;;;;1.30;0.93;;;;;;;0.21;100.00;99324.13;5078608;28;20042;-73
2024/02/12 01:25:07;;;;;;;1.63;0.90;;;;;;;0.37;100.00;99341.16;5096253;28;20157;-73
2024/02/12 01:27:36;;;;;;;1.38;1.27;;;;;;;0.46;100.00;99347.41;5079015;28;20043;-73
2024/02/12 01:30:05;;;;;;;3.90;1.27;;;;;;;0.49;100.00;99339.16;5112426;28;20110;-73
2024/02/12 01:32:31;;;;;;;6.10;4.85;;;;;;;0.35;100.00;99329.91;5096760;28;20031;-73
2024/02/12 01:34:58;;;;;;;1.58;1.20;;;;;;;0.35;100.00;99336.03;5079362;28;20039;-73
2024/02/12 01:37:27;;;;;;;0.90;0.90;;;;;;;0.43;100.00;99336.13;5096040;28;20093;-73
2024/02/12 01:39:53;;;;;;;1.45;1.27;;;;;;;0.52;100.00;99336.22;5079476;28;20041;-73
2024/02/12 01:42:19;;;;;;;2.28;1.30;;;;;;;0.56;100.00;99340.25;5095859;28;20058;-73
2024/02/12 01:45:00;;;;;;;0.82;0.82;;;;;;;0.56;100.00;99334.97;5079131;28;20462;-73
2024/02/12 01:47:26;;;;;;;2.25;1.10;;;;;;;0.43;100.00;99330.84;5079203;28;20027;-73
2024/02/12 01:49:57;;;;;;;2.42;0.80;;;;;;;0.22;100.00;99338.16;5112605;28;20546;-74
2024/02/12 01:52:26;;;;;;;2.00;1.38;;;;;;;0.09;100.00;99340.28;5096270;28;20031;-73
2024/02/12 01:54:55;;;;;;;0.88;0.88;;;;;;;-0.05;100.00;99333.66;5079099;28;20039;-73
2024/02/12 01:57:22;;;;;;;0.88;0.85;;;;;;;-0.06;100.00;99348.66;5095765;28;20032;-74
2024/02/12 01:59:48;;;;;;;0.63;0.63;;;;;;;-0.03;100.00;99350.16;5112583;28;20032;-73
2024/02/12 02:02:14;;;;;;;1.25;1.15;;;;;;;-0.06;100.00;99347.81;5079131;28;20451;-73
2024/02/12 02:04:43;;;;;;;0.80;0.80;;;;;;;-0.13;100.00;99346.72;5095964;28;20038;-73
2024/02/12 02:07:21;;;;;;;1.20;1.10;;;;;;;-0.20;100.00;99349.09;5095575;28;20036;-73
2024/02/12 02:09:48;;;;;;;3.47;0.90;;;;;;;-0.33;100.00;99345.94;5079795;28;20043;-73
2024/02/12 02:12:15;;;;;;;1.15;1.05;;;;;;;-0.35;100.00;99358.44;5112489;28;20036;-73
2024/02/12 02:14:46;;;;;;;0.75;0.75;;;;;;;-0.36;100.00;99365.53;5096364;28;20391;-73
2024/02/12 02:17:13;;;;;;;2.33;1.17;;;;;;;-0.33;100.00;99356.50;5078893;28;20031;-73
2024/02/12 02:19:39;;;;;;;0.52;0.52;;;;;;;-0.32;100.00;99359.00;5078657;28;20035;-73
2024/02/12 02:22:06;;;;;;;0.70;0.70;;;;;;;-0.26;100.00;99362.88;5078940;28;20048;-73
2024/02/12 02:24:34;;;;;;;0.98;0.60;;;;;;;-0.10;100.00;99360.50;5095513;28;20472;-73
2024/02/12 02:27:00;;;;;;;1.65;0.65;;;;;;;0.10;100.00;99373.66;5080042;28;20126;-74
2024/02/12 02:29:29;;;;;;;1.35;1.25;;;;;;;0.31;100.00;99387.50;5083313;28;20135;-73
2024/02/12 02:31:55;;;;;;;1.27;0.70;;;;;;;0.46;100.00;99379.97;5082765;28;20499;-73
2024/02/12 02:34:21;;;;;;;0.60;0.60;;;;;;;0.57;100.00;99368.34;5099375;28;20032;-73
2024/02/12 02:36:48;;;;;;;0.60;0.60;;;;;;;0.70;100.00;99374.16;5082441;28;20031;-73
2024/02/12 02:39:14;;;;;;;2.25;0.98;;;;;;;0.62;100.00;99369.59;5099334;28;20031;-73
2024/02/12 02:41:43;;;;;;;2.53;1.13;;;;;;;0.46;100.00;99377.31;5082200;28;20034;-73
2024/02/12 02:44:09;;;;;;;1.00;0.98;;;;;;;0.21;100.00;99376.97;5115893;28;20026;-73
2024/02/12 02:46:36;;;;;;;0.52;0.52;;;;;;;0.10;100.00;99371.84;5099004;28;20031;-73
2024/02/12 02:49:03;;;;;;;0.70;0.70;;;;;;;-0.07;100.00;99360.22;5098752;28;20031;-74
2024/02/12 02:51:30;;;;;;;0.82;0.82;;;;;;;-0.04;100.00;99367.00;5082820;28;20043;-73
2024/02/12 02:53:56;;;;;;;0.50;0.50;;;;;;;0.02;100.00;99374.38;5098893;28;20036;-73
2024/02/12 02:56:23;;;;;;;1.05;1.02;;;;;;;0.07;100.00;99380.06;5081851;28;20051;-73
2024/02/12 02:58:50;;;;;;;1.85;0.95;;;;;;;0.01;100.00;99385.09;5115560;28;20032;-73
2024/02/12 03:01:19;;;;;;;0.60;0.60;;;;;;;-0.04;100.00;99386.34;5098931;28;20055;-73
2024/02/12 03:03:50;;;;;;;0.80;0.80;;;;;;;-0.09;100.00;99379.81;5081874;28;20047;-73
2024/02/12 03:06:19;;;;;;;0.60;0.60;;;;;;;-0.22;100.00;99382.75;5082612;28;20039;-73
2024/02/12 03:08:48;;;;;;;3.13;0.70;;;;;;;-0.15;100.00;99397.06;5098576;28;20472;-74
2024/02/12 03:11:25;;;;;;;5.55;1.00;;;;;;;-0.13;100.00;99400.41;5082954;28;20046;-73
2024/02/12 03:13:51;;;;;;;1.02;0.80;;;;;;;-0.32;100.00;99397.75;5082320;28;20046;-73
2024/02/12 03:16:17;;;;;;;0.68;0.68;;;;;;;-0.47;100.00;99402.66;5081689;28;20028;-73
2024/02/12 03:18:46;;;;;;;0.85;0.63;;;;;;;-0.55;100.00;99400.69;5115005;28;20039;-73
2024/02/12 03:21:13;;;;;;;0.85;0.85;;;;;;;-0.43;100.00;99403.19;5099005;28;20078;-73
2024/02/12 03:23:38;;;;;;;1.15;1.00;;;;;;;-0.36;100.00;99406.94;5081530;28;20092;-73
2024/02/12 03:26:08;;;;;;;5.25;1.02;;;;;;;-0.34;100.00;99405.00;5081553;28;20027;-73
2024/02/12 03:28:35;;;;;;;0.60;0.60;;;;;;;-0.20;100.00;99403.75;5098838;28;20127;-73
2024/02/12 03:31:04;;;;;;;7.32;1.05;;;;;;;-0.05;100.00;99407.63;5081358;28;20027;-73
2024/02/12 03:33:31;;;;;;;0.70;0.70;;;;;;;0.01;100.00;99408.88;5115345;28;20051;-73
2024/02/12 03:35:57;;;;;;;0.60;0.60;;;;;;;-0.04;100.00;99410.13;5081350;28;20093;-73
2024/02/12 03:38:24;;;;;;;5.20;1.15;;;;;;;-0.15;100.00;99402.34;5096570;28;20043;-73
2024/02/12 03:40:53;;;;;;;1.95;1.08;;;;;;;-0.24;100.00;99404.03;5098437;28;20066;-73
2024/02/12 03:43:22;;;;;;;2.10;1.15;;;;;;;-0.25;100.00;99410.28;5097809;28;20027;-73
2024/02/12 03:45:49;;;;;;;1.45;0.98;;;;;;;-0.24;100.00;99400.53;5114849;28;20078;-73
2024/02/12 04:01:59;;;;;;;0.50;0.50;;;;;;;-0.07;100.00;99420.16;5100266;28;20474;-73
2024/02/12 04:04:25;;;;;;;1.02;0.90;;;;;;;-0.22;100.00;99422.38;5080268;28;20113;-73
2024/02/12 04:06:51;;;;;;;0.93;0.85;;;;;;;-0.26;100.00;99421.81;5080939;28;20043;-73
2024/02/12 04:09:17;;;;;;;0.60;0.60;;;;;;;-0.31;100.00;99417.94;5097234;28;20028;-73
2024/02/12 04:11:44;;;;;;;0.77;0.77;;;;;;;-0.38;100.00;99428.22;5097920;28;20078;-73
2024/02/12 04:14:11;;;;;;;0.50;0.50;;;;;;;-0.35;100.00;99424.47;5080261;28;20039;-73
2024/02/12 04:16:37;;;;;;;1.40;0.80;;;;;;;-0.24;100.00;99419.03;5064302;28;20036;-73
2024/02/12 04:19:03;;;;;;;0.57;0.57;;;;;;;-0.03;100.00;99429.44;5080091;28;20047;-74
2024/02/12 04:21:32;;;;;;;0.98;0.93;;;;;;;0.15;100.00;99437.50;5097299;28;20399;-73
2024/02/12 04:24:03;;;;;;;4.80;1.65;;;;;;;0.27;100.00;99428.44;5081268;28;20084;-73
2024/02/12 04:26:37;;;;;;;0.88;0.85;;;;;;;0.13;100.00;99420.94;5097218;28;20030;-73
2024/02/12 04:29:07;;;;;;;0.60;0.60;;;;;;;-0.02;100.00;99439.06;5097460;28;20040;-73
2024/02/12 04:31:35;;;;;;;5.18;0.90;;;;;;;-0.22;100.00;99440.88;5080705;28;20499;-73
2024/02/12 04:34:01;;;;;;;0.50;0.50;;;;;;;-0.50;100.00;99435.44;5096850;28;20023;-73
2024/02/12 04:36:27;;;;;;;0.68;0.68;;;;;;;-0.69;100.00;99445.94;5080227;28;20035;-73
2024/02/12 04:38:53;;;;;;;1.55;0.63;;;;;;;-0.74;100.00;99441.09;5080012;28;20122;-73
2024/02/12 04:41:19;;;;;;;0.90;0.90;;;;;;;-0.77;100.00;99441.34;5080208;28;20081;-75
2024/02/12 04:43:46;;;;;;;1.08;0.93;;;;;;;-0.91;100.00;99445.22;5080102;28;20413;-73
2024/02/12 04:46:12;;;;;;;0.80;0.80;;;;;;;-1.04;100.00;99441.16;5096925;28;20031;-73
2024/02/12 04:48:41;;;;;;;1.58;0.98;;;;;;;-1.06;100.00;99451.00;5080434;28;20077;-73
2024/02/12 04:51:08;;;;;;;0.70;0.70;;;;;;;-1.04;100.00;99444.63;5079588;28;20116;-73
2024/02/12 04:53:34;;;;;;;0.57;0.57;;;;;;;-0.97;100.00;99435.19;5079896;28;20034;-73
2024/02/12 04:55:59;;;;;;;1.50;0.85;;;;;;;-0.98;100.00;99441.47;5079758;28;20028;-73
2024/02/12 04:58:25;;;;;;;0.60;0.60;;;;;;;-1.01;100.00;99440.88;5079555;28;20110;-73
2024/02/12 05:00:51;;;;;;;0.90;0.90;;;;;;;-1.13;100.00;99448.06;5079753;28;20470;-73
2024/02/12 05:03:17;;;;;;;0.75;0.75;;;;;;;-1.26;100.00;99458.00;5079845;28;20032;-73
2024/02/12 05:05:42;;;;;;;1.15;0.70;;;;;;;-1.35;100.00;99463.09;5079496;28;20120;-73
2024/02/12 05:08:08;;;;;;;0.80;0.70;;;;;;;-1.36;100.00;99477.25;5096162;28;20023;-73
2024/02/12 05:10:34;;;;;;;0.68;0.68;;;;;;;-1.29;100.00;99474.94;5079696;28;20035;-73
2024/02/12 05:13:07;;;;;;;0.60;0.60;;;;;;;-1.16;100.00;99485.25;5097232;28;20103;-73
2024/02/12 05:15:34;;;;;;;1.10;1.00;;;;;;;-1.11;100.00;99498.91;5113341;28;20064;-73
2024/02/12 05:22:33;;;;;;;0.55;0.55;;;;;;;-1.08;100.00;99498.63;5096292;28;20089;-73
2024/02/12 05:23:44;;;;;;;0.90;0.90;;;;;;;-0.80;100.00;99489.13;5098646;28;20036;-73
2024/02/12 05:26:11;;;;;;;8.35;0.88;;;;;;;-0.67;100.00;99489.72;5079086;28;20045;-73
2024/02/12 05:28:37;;;;;;;3.58;1.45;;;;;;;-0.59;100.00;99483.75;5079063;28;20035;-73
2024/02/12 05:31:03;;;;;;;1.17;1.00;;;;;;;-0.57;100.00;99479.19;5079275;28;20039;-73
2024/02/12 05:33:31;;;;;;;0.60;0.60;;;;;;;-0.62;100.00;99476.13;5079100;28;20039;-73
2024/02/12 05:35:58;;;;;;;0.95;0.90;;;;;;;-0.80;100.00;99483.03;5112539;28;20024;-73
2024/02/12 05:38:23;;;;;;;2.33;1.48;;;;;;;-1.00;100.00;99490.88;5079505;28;20444;-73
2024/02/12 05:40:49;;;;;;;1.23;1.13;;;;;;;-1.22;100.00;99491.88;5079300;28;20024;-73
2024/02/12 05:43:14;;;;;;;1.00;0.90;;;;;;;-1.37;100.00;99494.03;5079234;28;20028;-73
2024/02/12 05:45:41;;;;;;;1.08;0.98;;;;;;;-1.53;100.00;99490.19;5079035;28;20390;-73
2024/02/12 05:48:07;;;;;;;0.65;0.65;;;;;;;-1.58;100.00;99495.84;5095629;28;20024;-73
2024/02/12 05:50:33;;;;;;;0.57;0.57;;;;;;;-1.45;100.00;99493.84;5079374;28;20565;-73
2024/02/12 05:52:59;;;;;;;0.73;0.60;;;;;;;-1.27;100.00;99506.41;5079100;28;20027;-73
2024/02/12 05:55:25;;;;;;;3.50;1.33;;;;;;;-1.21;100.00;99509.38;5096092;28;20032;-73
2024/02/12 05:57:51;;;;;;;0.75;0.75;;;;;;;-1.31;100.00;99512.94;5078908;28;20032;-73
2024/02/12 06:00:17;;;;;;;0.98;0.90;;;;;;;-1.52;100.00;99508.50;5112577;28;20031;-73
2024/02/12 06:02:52;;;;;;;1.75;0.90;;;;;;;-1.63;100.00;99513.84;5100889;28;20188;-73
2024/02/12 06:05:17;;;;;;;2.25;0.70;;;;;;;-1.68;100.00;99508.97;5083065;28;20527;-73
2024/02/12 06:07:43;;;;;;;0.90;0.90;;;;;;;-1.69;100.00;99519.63;5099806;28;20034;-73
2024/02/12 06:10:09;;;;;;;0.60;0.60;;;;;;;-1.59;100.00;99521.38;5083151;28;20031;-73
2024/02/12 06:12:35;;;;;;;1.50;1.00;;;;;;;-1.45;100.00;99514.13;5099897;28;20463;-73
2024/02/12 06:15:01;;;;;;;1.17;1.08;;;;;;;-1.46;100.00;99526.44;5083093;28;20031;-72
2024/02/12 06:17:28;;;;;;;1.80;1.48;;;;;;;-1.32;100.00;99527.94;5099922;28;20042;-72
2024/02/12 06:19:54;;;;;;;0.80;0.80;;;;;;;-1.17;100.00;99531.06;5100545;28;20043;-73
2024/02/12 06:22:20;;;;;;;0.85;0.80;;;;;;;-1.03;100.00;99528.09;5082976;28;20383;-73
2024/02/12 06:24:46;;;;;;;1.67;1.20;;;;;;;-1.01;100.00;99522.66;5100057;28;20081;-73
2024/02/12 06:27:11;;;;;;;0.60;0.60;;;;;;;-1.13;100.00;99537.75;5082801;28;20032;-73
2024/02/12 06:29:38;;;;;;;3.22;1.33;;;;;;;-1.29;100.00;99538.22;5099832;28;20039;-73
2024/02/12 06:32:09;;;;;;;1.67;0.95;;;;;;;-1.40;100.00;99541.75;5100365;28;20114;-73
2024/02/12 06:34:34;;;;;;;0.73;0.70;;;;;;;-1.52;100.00;99542.78;5100082;28;20044;-73
2024/02/12 06:37:00;;;;;;;3.83;0.75;;;;;;;-1.59;100.00;99554.78;5099041;28;20023;-73
2024/02/12 06:39:27;;;;;;;0.88;0.88;;;;;;;-1.59;100.00;99554.78;5082430;28;20380;-73
2024/02/12 06:41:53;;;;;;;0.70;0.70;;;;;;;-1.55;100.00;99551.78;5099584;28;20592;-73
2024/02/12 06:44:19;;;;;;;2.35;1.30;;;;;;;-1.57;100.00;99551.06;5082614;28;20122;-73
2024/02/12 06:46:45;;;;;;;3.38;1.00;;;;;;;-1.56;100.00;99557.19;5099396;28;20042;-73
2024/02/12 06:49:13;;;;;;;0.77;0.77;;;;;;;-1.61;100.00;99559.38;5081809;28;20027;-72
2024/02/12 06:51:40;;;;;;;3.20;1.60;;;;;;;-1.73;100.00;99555.13;5082056;28;20044;-73
2024/02/12 06:54:07;;;;;;;0.85;0.85;;;;;;;-1.66;100.00;99570.28;5082580;28;20040;-73
2024/02/12 06:56:33;;;;;;;0.85;0.82;;;;;;;-1.54;100.00;99563.16;5082411;28;20043;-73
2024/02/12 06:58:59;;;;;;;0.90;0.82;;;;;;;-1.42;100.00;99567.41;5081859;28;20636;-72
2024/02/12 07:01:27;;;;;;;2.22;0.98;;;;;;;-1.20;100.00;99570.88;5082055;28;20031;-73
2024/02/12 07:03:53;;;;;;;0.52;0.52;;;;;;;-0.90;100.00;99585.88;5082232;28;20463;-73
2024/02/12 07:06:21;;;;;;;0.50;0.50;;;;;;;-0.72;100.00;99579.03;5098781;28;20104;-73
2024/02/12 07:08:47;;;;;;;0.55;0.55;;;;;;;-0.61;100.00;99579.91;5081822;28;20023;-73
2024/02/12 07:11:14;;;;;;;0.60;0.60;;;;;;;-0.55;100.00;99576.75;5082151;28;20039;-73
2024/02/12 07:13:40;;;;;;;0.50;0.50;;;;;;;-0.39;100.00;99578.91;5081364;28;20035;-73
2024/02/12 07:16:06;;;;;;;1.95;0.95;;;;;;;-0.19;100.00;99580.59;5081595;28;20463;-72
2024/02/12 07:18:32;;;;;;;1.92;1.75;;;;;;;-0.05;100.00;99577.59;5098324;28;20036;-73
2024/02/12 07:20:58;;;;;;;0.60;0.60;;;;;;;0.02;100.00;99575.22;5098655;28;20028;-73
2024/02/12 07:23:23;;;;;;;0.95;0.80;;;;;;;0.06;100.00;99583.72;5081246;28;20036;-73
2024/02/12 07:25:49;;;;;;;11.70;0.93;;;;;;;0.25;100.00;99577.59;5081620;28;20118;-73
2024/02/12 07:28:15;;;;;;;0.88;0.77;;;;;;;0.44;100.00;99590.81;5097702;28;20020;-73
2024/02/12 07:30:43;;;;;;;1.40;1.30;;;;;;;0.61;100.00;99600.72;5098057;28;20077;-73
2024/02/12 07:33:08;;;;;;;1.65;1.55;;;;;;;0.79;100.00;99608.75;5081493;28;20035;-73
2024/02/12 07:35:34;;;;;;;2.40;1.10;;;;;;;0.88;100.00;99613.19;5081639;28;20115;-73
2024/02/12 07:38:00;;;;;;;1.55;1.10;;;;;;;0.95;100.00;99607.34;5081560;28;20027;-73
2024/02/12 07:40:26;;;;;;;1.58;1.17;;;;;;;1.01;100.00;99604.97;5080903;28;20035;-73
2024/02/12 07:42:52;;;;;;;2.05;1.83;;;;;;;1.06;100.00;99600.09;5097504;28;20032;-73
2024/02/12 07:45:19;;;;;;;2.13;1.65;;;;;;;1.15;100.00;99608.97;5098287;28;20391;-73
2024/02/12 07:47:45;;;;;;;2.45;1.83;;;;;;;1.17;100.00;99600.88;5080764;28;20035;-73
2024/02/12 07:50:12;;;;;;;2.15;1.95;;;;;;;1.10;100.00;99592.69;5081132;28;20038;-73
2024/02/12 07:52:39;;;;;;;1.80;1.70;;;;;;;1.03;100.00;99600.38;5081390;28;20479;-74
2024/02/12 07:55:07;;;;;;;2.38;1.45;;;;;;;1.01;100.00;99607.63;5080719;28;20042;-73
2024/02/12 07:57:44;;;;;;;3.67;2.35;;;;;;;1.02;100.00;99616.38;5099252;28;20436;-73
2024/02/12 08:00:14;;;;;;;1.77;1.00;;;;;;;1.03;100.00;99618.91;5081275;28;20482;-73
2024/02/12 08:02:43;;;;;;;0.70;0.70;;;;;;;1.07;100.00;99624.72;5097491;28;20030;-72
2024/02/12 08:05:14;;;;;;;1.40;1.30;;;;;;;1.00;100.00;99631.56;5098264;28;20027;-73
2024/02/12 08:07:40;;;;;;;1.05;1.02;;;;;;;0.99;100.00;99629.91;5114309;28;20464;-73
2024/02/12 08:10:07;;;;;;;3.42;2.03;;;;;;;0.86;100.00;99625.72;5080281;28;20062;-73
2024/02/12 08:12:34;;;;;;;2.10;1.85;;;;;;;0.83;100.00;99635.78;5080273;28;20485;-72
2024/02/12 08:15:00;;;;;;;2.17;1.55;;;;;;;0.84;100.00;99637.44;5097477;28;20096;-73
2024/02/12 08:17:26;;;;;;;3.13;2.45;;;;;;;0.93;100.00;99636.59;5080084;28;20028;-73
2024/02/12 08:19:52;;;;;;;4.15;2.58;;;;;;;0.99;100.00;99635.19;5080367;28;20047;-73
2024/02/12 08:22:18;;;;;;;3.70;2.08;;;;;;;1.06;100.00;99634.50;5080230;28;20028;-73
2024/02/12 08:24:43;;;;;;;3.75;1.73;;;;;;;1.18;100.00;99632.50;5079397;28;20073;-74
2024/02/12 08:27:09;;;;;;;1.42;1.33;;;;;;;1.37;100.00;99623.66;5080074;28;20047;-73
2024/02/12 08:29:35;;;;;;;3.08;1.13;;;;;;;1.56;100.00;99633.34;5079931;28;20035;-73
2024/02/12 08:32:02;;;;;;;5.10;4.60;;;;;;;1.61;100.00;99644.34;5096514;28;20023;-73
2024/02/12 08:34:28;;;;;;;1.77;1.50;;;;;;;1.61;100.00;99644.34;5097018;28;20422;-73
2024/02/12 08:36:54;;;;;;;0.73;0.73;;;;;;;1.72;100.00;99649.47;5096941;28;20042;-73
2024/02/12 08:39:21;;;;;;;1.88;1.25;;;;;;;1.90;100.00;99657.47;5080047;28;20036;-73
2024/02/12 08:41:48;;;;;;;1.25;0.82;;;;;;;1.93;100.00;99656.34;5080731;28;20039;-73
2024/02/12 08:44:14;;;;;;;0.60;0.60;;;;;;;1.88;100.00;99659.47;5097409;28;20470;-73
2024/02/12 08:46:41;;;;;;;0.60;0.60;;;;;;;1.83;100.00;99664.34;5080125;28;20050;-73
2024/02/12 08:49:06;;;;;;;0.70;0.70;;;;;;;1.78;100.00;99652.53;5096744;28;20031;-73
2024/02/12 08:51:32;;;;;;;1.33;1.33;;;;;;;1.76;100.00;99655.31;5096375;28;20123;-73
2024/02/12 08:53:59;;;;;;;1.10;0.93;;;;;;;1.71;100.00;99654.91;5079884;28;20066;-73
2024/02/12 08:56:28;;;;;;;1.15;1.05;;;;;;;1.74;100.00;99657.28;5113534;28;20432;-73
2024/02/12 08:58:57;;;;;;;0.70;0.70;;;;;;;2.11;100.00;99654.56;5097311;28;20436;-73
2024/02/12 09:01:23;;;;;;;2.90;0.80;;;;;;;2.41;100.00;99661.38;5096958;28;20038;-73
2024/02/12 09:04:09;;;;;;;1.20;1.10;;;;;;;2.73;100.00;99659.19;5113057;28;20058;-73
2024/02/12 09:06:34;;;;;;;2.03;1.13;;;;;;;3.14;100.00;99656.84;5079771;28;20071;-73
2024/02/12 09:09:01;;;;;;;1.85;0.75;;;;;;;3.72;100.00;99661.53;5096456;28;20028;-73
2024/02/12 09:11:26;;;;;;;0.80;0.80;;;;;;;4.24;100.00;99656.09;5095716;28;20034;-74
2024/02/12 09:13:53;;;;;;;5.78;1.00;;;;;;;4.72;100.00;99659.84;5079763;28;20491;-73
2024/02/12 09:16:19;;;;;;;1.42;1.17;;;;;;;4.79;100.00;99668.84;5096660;28;20043;-73
2024/02/12 09:18:46;;;;;;;0.70;0.70;;;;;;;4.05;100.00;99670.50;5096798;28;20089;-74
2024/02/12 09:21:12;;;;;;;6.72;0.73;;;;;;;3.50;100.00;99673.53;5112923;28;20100;-73
2024/02/12 09:23:38;;;;;;;0.90;0.70;;;;;;;3.27;100.00;99667.91;5097140;28;20402;-73
2024/02/12 09:26:12;;;;;;;2.03;1.00;;;;;;;3.20;100.00;99673.03;5095591;28;20097;-73
2024/02/12 09:28:38;;;;;;;0.60;0.60;;;;;;;3.36;100.00;99680.28;5078792;28;20030;-73
2024/02/12 09:31:04;;;;;;;0.60;0.60;;;;;;;4.73;100.00;99677.47;5079428;28;20035;-73
2024/02/12 09:33:30;;;;;;;0.50;0.50;;;;;;;5.00;100.00;99681.69;5077902;28;20475;-74
2024/02/12 09:35:57;;;;;;;0.82;0.82;;;;;;;5.29;100.00;99683.84;5079182;28;20027;-74
2024/02/12 09:38:23;;;;;;;0.93;0.93;;;;;;;6.25;100.00;99683.94;5096061;28;20039;-74
2024/02/12 09:40:53;;;;;;;0.60;0.60;;;;;;;6.23;100.00;99684.09;5079400;28;20039;-73
2024/02/12 09:43:22;;;;;;;3.60;0.70;;;;;;;6.34;100.00;99689.03;5096163;28;20039;-73
2024/02/12 09:45:51;;;;;;;0.60;0.60;;;;;;;7.12;100.00;99691.69;5079240;28;20065;-74
2024/02/12 09:48:17;;;;;;;2.20;0.80;;;;;;;7.40;100.00;99687.44;5096080;28;20032;-73
2024/02/12 09:50:44;;;;;;;0.75;0.75;;;;;;;7.45;100.00;99694.94;5079202;28;20031;-73
2024/02/12 09:53:15;;;;;;;2.95;0.98;;;;;;;7.47;100.00;99692.91;5079348;28;20436;-73
2024/02/12 09:55:47;;;;;;;0.70;0.70;;;;;;;7.55;100.00;99695.50;5080342;28;20039;-74
2024/02/12 09:58:15;;;;;;;0.60;0.60;;;;;;;7.65;100.00;99696.06;5096031;28;20036;-74
2024/02/12 10:00:45;;;;;;;1.27;0.90;;;;;;;8.02;100.00;99698.84;5062849;28;20062;-74
2024/02/12 10:03:24;;;;;;;0.70;0.70;;;;;;;8.59;100.00;99692.78;5098145;28;20140;-74
2024/02/12 10:06:13;;;;;;;0.60;0.60;;;;;;;8.05;100.00;99695.81;5112491;28;20070;-74
2024/02/12 10:09:07;;;;;;;1.60;0.70;;;;;;;6.94;100.00;99687.50;5112358;28;20020;-74
2024/02/12 10:11:54;;;;;;;0.60;0.60;;;;;;;6.54;100.00;99689.44;5098330;28;20031;-73
2024/02/12 10:14:42;;;;;;;3.50;0.70;;;;;;;6.28;100.00;99704.94;5098742;28;20425;-74
2024/02/12 10:17:27;;;;;;;0.80;0.80;;;;;;;5.35;100.00;99716.16;5098552;28;20059;-73
2024/02/12 10:20:15;;;;;;;0.63;0.63;;;;;;;4.74;100.00;99731.59;5098110;28;20058;-73
2024/02/12 10:23:01;;;;;;;1.23;0.60;;;;;;;4.67;100.00;99709.25;5084664;28;20035;-73
2024/02/12 10:25:51;;;;;;;0.55;0.55;;;;;;;4.99;100.00;99722.63;5098086;28;20364;-73
2024/02/12 10:28:37;;;;;;;0.93;0.93;;;;;;;5.90;100.00;99726.03;5112214;28;20088;-73
2024/02/12 10:31:24;;;;;;;0.77;0.77;;;;;;;6.32;100.00;99723.06;5112233;28;20038;-73
2024/02/12 10:34:11;;;;;;;0.80;0.80;;;;;;;6.87;100.00;99715.94;5070796;28;20028;-73
2024/02/12 10:36:57;;;;;;;0.70;0.70;;;;;;;8.07;100.00;99721.38;5098643;28;20065;-74
2024/02/12 10:39:45;;;;;;;3.72;0.95;;;;;;;8.62;100.00;99716.53;5112149;28;20429;-73
2024/02/12 10:42:43;;;;;;;1.95;1.52;;;;;;;9.01;100.00;99704.56;5085375;28;20039;-74
2024/02/12 10:45:29;;;;;;;7.18;2.00;;;;;;;9.73;100.00;99718.78;5112594;28;20039;-74
2024/02/12 10:48:16;;;;;;;3.08;1.10;;;;;;;8.37;100.00;99716.00;5086465;28;20024;-73
2024/02/12 10:51:02;;;;;;;0.90;0.90;;;;;;;8.78;100.00;99721.66;5088490;28;20544;-74
2024/02/12 10:53:49;;;;;;;1.50;1.15;;;;;;;9.02;100.00;99707.06;5088197;28;20032;-73
2024/02/12 10:56:36;;;;;;;3.35;0.75;;;;;;;9.43;100.00;99718.97;5102399;28;20616;-74
2024/02/12 10:59:02;;;;;;;2.40;0.98;;;;;;;9.59;100.00;99716.00;5082210;28;20031;-74
2024/02/12 11:01:31;;;;;;;1.55;0.80;;;;;;;9.62;100.00;99718.28;5099240;28;20036;-74
2024/02/12 11:03:59;;;;;;;3.90;1.20;;;;;;;9.58;100.00;99727.78;5082104;28;20089;-74
2024/02/12 11:06:26;;;;;;;2.38;0.90;;;;;;;9.62;100.00;99726.34;5098901;28;20452;-74
2024/02/12 11:08:54;;;;;;;1.95;0.88;;;;;;;9.74;100.00;99723.13;5098803;28;20061;-74
2024/02/12 11:11:20;;;;;;;0.95;0.80;;;;;;;8.92;100.00;99722.66;5098780;28;20076;-74
2024/02/12 11:14:00;;;;;;;2.30;1.10;;;;;;;8.31;100.00;99736.31;5098852;28;20023;-74
2024/02/12 11:16:28;;;;;;;3.47;1.58;;;;;;;8.51;100.00;99735.78;5081879;28;20042;-74
2024/02/12 11:18:58;;;;;;;3.10;1.23;;;;;;;9.13;100.00;99729.88;5098527;28;20039;-74
2024/02/12 11:21:44;;;;;;;6.28;1.98;;;;;;;9.79;100.00;99726.06;5099559;28;20088;-74
2024/02/12 11:24:11;;;;;;;4.00;1.00;;;;;;;10.07;100.00;99734.91;5099250;28;20067;-74
2024/02/12 11:26:39;;;;;;;0.98;0.70;;;;;;;9.68;100.00;99736.31;5098509;28;20058;-74
2024/02/12 11:29:08;;;;;;;1.60;1.20;;;;;;;8.93;100.00;99729.66;5097635;28;20327;-75
2024/02/12 11:31:38;;;;;;;2.70;1.48;;;;;;;8.08;100.00;99736.41;5114071;28;20038;-75
2024/02/12 11:34:11;;;;;;;1.38;1.20;;;;;;;7.98;100.00;99735.03;5065085;28;20547;-75
2024/02/12 11:36:37;;;;;;;3.63;1.48;;;;;;;8.02;100.00;99730.97;5081532;28;20032;-75
2024/02/12 11:39:03;;;;;;;2.67;1.23;;;;;;;8.46;100.00;99730.97;5098168;28;20091;-75
2024/02/12 11:41:32;;;;;;;1.25;0.95;;;;;;;9.17;100.00;99730.31;5081600;28;20121;-75
2024/02/12 11:43:58;;;;;;;0.82;0.80;;;;;;;9.66;100.00;99722.25;5081613;28;20031;-75
2024/02/12 11:46:24;;;;;;;2.38;1.35;;;;;;;9.63;100.00;99729.84;5098337;28;20127;-75
2024/02/12 11:49:03;;;;;;;1.98;0.85;;;;;;;8.89;100.00;99740.94;5097976;28;20122;-75
2024/02/12 11:51:29;;;;;;;1.48;0.93;;;;;;;8.21;100.00;99745.66;5081579;28;20045;-75
2024/02/12 11:53:54;;;;;;;0.82;0.77;;;;;;;7.66;100.00;99753.91;5080545;28;20087;-75